Time;durP1;ratioP1;P1;durP2;ratioP2;P2;SDS_P1;SDS_P2;PMS_P1;PMS_P2;Temp;Humidity;BMP_temperature;BMP_pressure;BME280_temperature;BME280_humidity;BME280_pressure;Samples;Min_cycle;Max_cycle;Signal;HPM_P1;HPM_P2
2022/01/06 00:01:10;;;;;;;6.13;1.20;;;;;;;18.13;47.71;101632.50;4913551;29;20050;-61
2022/01/06 00:03:35;;;;;;;6.18;1.30;;;;;;;18.13;47.28;101637.81;4914620;29;20060;-61
2022/01/06 00:06:04;;;;;;;6.57;1.30;;;;;;;18.08;47.70;101634.66;4914781;29;20143;-64
2022/01/06 00:08:30;;;;;;;6.43;1.30;;;;;;;18.07;47.66;101632.97;4915196;29;20080;-60
2022/01/06 00:10:55;;;;;;;6.72;1.38;;;;;;;18.04;47.76;101628.72;4919840;29;20513;-61
2022/01/06 00:13:32;;;;;;;6.97;1.10;;;;;;;18.07;47.50;101632.13;4906840;29;20444;-61
2022/01/06 00:16:57;;;;;;;6.78;1.15;;;;;;;18.02;47.95;101632.47;4899570;29;20068;-61
2022/01/06 00:24:15;;;;;;;8.48;1.20;;;;;;;17.93;47.38;101643.78;4899667;29;20564;-61
2022/01/06 00:26:41;;;;;;;10.07;1.50;;;;;;;17.94;47.67;101645.47;4900174;29;20100;-61
2022/01/06 00:29:06;;;;;;;8.50;1.33;;;;;;;17.94;47.48;101634.84;4899538;29;20088;-61
2022/01/06 00:31:33;;;;;;;7.45;1.10;;;;;;;17.95;47.58;101636.53;4899443;29;20052;-61
2022/01/06 00:33:58;;;;;;;7.75;1.33;;;;;;;17.90;47.45;101647.53;4899426;29;20032;-61
2022/01/06 00:36:24;;;;;;;8.05;1.30;;;;;;;17.87;47.08;101644.25;4899476;29;20037;-61
2022/01/06 00:38:49;;;;;;;4.93;0.90;;;;;;;17.84;47.40;101644.47;4883023;29;20528;-61
2022/01/06 00:41:14;;;;;;;7.65;1.38;;;;;;;17.80;47.45;101639.41;4899402;29;20088;-60
2022/01/06 00:43:40;;;;;;;6.50;1.10;;;;;;;17.79;47.74;101637.69;4899210;29;20374;-61
2022/01/06 00:46:05;;;;;;;7.10;0.98;;;;;;;17.79;47.72;101639.50;4899167;29;20043;-61
2022/01/06 00:48:31;;;;;;;4.57;0.90;;;;;;;17.78;47.75;101638.66;4898850;29;20045;-61
2022/01/06 00:50:56;;;;;;;5.18;1.02;;;;;;;17.77;47.40;101644.09;4899635;29;20025;-61
2022/01/06 00:53:22;;;;;;;6.57;0.85;;;;;;;17.77;47.72;101639.63;4899060;29;20503;-61
2022/01/06 00:55:47;;;;;;;5.95;1.05;;;;;;;17.71;47.43;101640.06;4898974;29;20045;-61
2022/01/06 00:58:13;;;;;;;5.97;1.10;;;;;;;17.77;47.37;101650.25;4898840;29;20112;-61
2022/01/06 01:00:40;;;;;;;7.55;1.17;;;;;;;17.75;47.06;101652.13;4899006;29;20116;-61
2022/01/06 01:03:16;;;;;;;8.38;1.17;;;;;;;17.75;47.05;101652.13;4899179;29;20033;-61
2022/01/06 01:05:42;;;;;;;10.52;1.60;;;;;;;17.72;47.02;101654.16;4882522;29;20040;-61
2022/01/06 01:08:08;;;;;;;7.18;1.20;;;;;;;17.67;47.13;101659.78;4898848;29;20036;-60
2022/01/06 01:10:33;;;;;;;6.25;1.10;;;;;;;17.66;47.34;101660.75;4904094;29;20527;-61
2022/01/06 01:12:59;;;;;;;9.05;1.38;;;;;;;17.65;47.07;101668.84;4898911;29;20096;-61
2022/01/06 01:15:26;;;;;;;6.45;1.08;;;;;;;17.65;47.28;101675.00;4898604;29;20040;-61
2022/01/06 01:17:52;;;;;;;4.85;0.93;;;;;;;17.68;47.32;101672.13;4899054;29;20033;-61
2022/01/06 01:20:18;;;;;;;7.25;1.10;;;;;;;17.58;47.05;101674.63;4898592;29;20037;-60
2022/01/06 01:22:43;;;;;;;7.00;0.93;;;;;;;17.65;47.04;101672.34;4881392;29;20045;-61
2022/01/06 01:25:09;;;;;;;6.18;1.20;;;;;;;17.68;47.22;101676.59;4897098;29;20044;-61
2022/01/06 01:27:42;;;;;;;6.53;1.00;;;;;;;17.61;46.40;101675.31;4898313;29;20044;-61
2022/01/06 01:30:11;;;;;;;9.18;1.23;;;;;;;17.61;47.25;101688.59;4898461;29;20045;-61
2022/01/06 01:32:38;;;;;;;9.00;1.40;;;;;;;17.55;46.92;101698.72;4898809;29;20045;-60
2022/01/06 01:35:04;;;;;;;8.00;1.20;;;;;;;17.55;47.22;101704.03;4898581;29;20108;-61
2022/01/06 01:37:30;;;;;;;5.25;0.98;;;;;;;17.55;47.29;101713.78;4914163;29;20834;-61
2022/01/06 01:39:56;;;;;;;4.78;0.98;;;;;;;17.54;46.71;101709.41;4917060;29;20067;-61
2022/01/06 01:42:21;;;;;;;5.88;1.05;;;;;;;17.50;47.15;101710.63;4917136;29;20032;-61
2022/01/06 01:44:49;;;;;;;6.20;1.25;;;;;;;17.52;46.96;101714.00;4917701;29;20648;-61
2022/01/06 01:47:15;;;;;;;6.95;1.08;;;;;;;17.53;46.89;101705.09;4899940;29;20119;-61
2022/01/06 01:49:55;;;;;;;7.43;1.15;;;;;;;17.46;47.25;101703.84;4916886;29;20040;-61
2022/01/06 01:52:20;;;;;;;5.97;1.00;;;;;;;17.45;46.99;101710.09;4916747;29;20429;-61
2022/01/06 01:54:46;;;;;;;8.20;1.00;;;;;;;17.44;47.62;101711.06;4915529;29;20036;-61
2022/01/06 01:57:11;;;;;;;4.82;0.80;;;;;;;17.41;47.11;101716.59;4916615;29;20141;-61
2022/01/06 01:59:36;;;;;;;6.70;1.00;;;;;;;17.40;47.50;101714.91;4884553;29;20413;-60
2022/01/06 02:02:02;;;;;;;8.02;1.10;;;;;;;17.37;47.52;101715.13;4916765;29;20044;-60
2022/01/06 02:04:28;;;;;;;6.55;1.13;;;;;;;17.40;47.62;101717.53;4899740;29;20040;-61
2022/01/06 02:06:53;;;;;;;4.50;0.88;;;;;;;17.37;47.19;101715.13;4909173;29;20429;-61
2022/01/06 02:09:19;;;;;;;6.18;1.20;;;;;;;17.34;47.30;101718.81;4880982;29;20036;-61
2022/01/06 02:11:44;;;;;;;7.68;1.20;;;;;;;17.37;47.62;101720.41;4923722;29;20428;-61
2022/01/06 02:14:09;;;;;;;4.03;0.90;;;;;;;17.36;47.59;101719.56;4935326;29;20460;-61
2022/01/06 02:16:37;;;;;;;4.20;0.93;;;;;;;17.31;47.62;101724.34;4935202;28;20043;-61
2022/01/06 02:19:02;;;;;;;5.75;1.40;;;;;;;17.29;47.46;101721.78;4935251;29;20048;-61
2022/01/06 02:21:28;;;;;;;6.13;1.02;;;;;;;17.25;47.41;101725.63;4918181;29;20046;-60
2022/01/06 02:24:27;;;;;;;4.82;0.82;;;;;;;17.23;47.32;101730.19;4935622;29;20488;-60
2022/01/06 02:26:53;;;;;;;4.10;1.10;;;;;;;17.19;47.07;101726.06;4935215;29;20471;-60
2022/01/06 02:29:18;;;;;;;8.10;1.10;;;;;;;17.22;47.71;101732.97;4935088;29;20051;-60
2022/01/06 02:31:46;;;;;;;5.95;1.10;;;;;;;17.21;47.72;101732.13;4922935;29;20127;-60
2022/01/06 02:34:11;;;;;;;5.78;1.00;;;;;;;17.14;47.29;101729.97;4896494;29;20160;-60
2022/01/06 02:36:37;;;;;;;7.00;1.17;;;;;;;17.13;47.14;101723.84;4897099;29;20215;-60
2022/01/06 02:39:03;;;;;;;7.22;1.30;;;;;;;17.14;47.07;101733.47;4896861;29;20511;-61
2022/01/06 02:41:28;;;;;;;5.65;1.05;;;;;;;17.10;47.09;101739.97;4897125;29;20506;-61
2022/01/06 02:43:55;;;;;;;4.95;0.90;;;;;;;17.09;47.67;101739.13;4895854;29;20405;-60
2022/01/06 02:46:20;;;;;;;5.40;0.95;;;;;;;17.09;47.05;101740.94;4897000;29;20068;-60
2022/01/06 02:48:46;;;;;;;6.45;1.00;;;;;;;17.06;47.41;101746.44;4896689;29;20051;-61
2022/01/06 02:51:11;;;;;;;5.07;0.90;;;;;;;17.07;47.43;101745.47;4896886;29;20556;-61
2022/01/06 02:53:37;;;;;;;5.85;0.82;;;;;;;17.05;47.25;101750.06;4897256;29;20078;-60
2022/01/06 02:56:02;;;;;;;5.78;0.95;;;;;;;17.07;47.40;101754.28;4896630;29;20528;-60
2022/01/06 02:58:28;;;;;;;7.95;1.25;;;;;;;17.01;47.33;101745.91;4896665;29;20051;-60
2022/01/06 03:00:53;;;;;;;5.28;1.08;;;;;;;17.01;47.15;101751.22;4896911;29;20037;-61
2022/01/06 03:03:19;;;;;;;5.18;1.27;;;;;;;17.01;47.72;101751.22;4896651;29;20048;-61
2022/01/06 03:05:44;;;;;;;5.78;0.80;;;;;;;16.96;47.03;101743.59;4892179;29;20123;-61
2022/01/06 03:08:10;;;;;;;5.78;0.88;;;;;;;16.92;47.07;101751.84;4912696;29;20048;-61
2022/01/06 03:11:00;;;;;;;4.88;0.90;;;;;;;16.98;47.34;101752.25;4903788;29;20032;-60
2022/01/06 03:13:26;;;;;;;6.13;0.90;;;;;;;16.96;47.51;101750.69;4934371;29;20032;-60
2022/01/06 03:15:51;;;;;;;4.47;0.80;;;;;;;16.96;47.17;101754.19;4934204;28;20046;-61
2022/01/06 03:18:17;;;;;;;7.53;1.20;;;;;;;16.91;46.96;101751.00;4934329;29;20039;-60
2022/01/06 03:20:42;;;;;;;4.75;0.80;;;;;;;16.87;47.03;101752.19;4934739;29;20039;-61
2022/01/06 03:23:07;;;;;;;5.68;1.00;;;;;;;16.93;47.45;101758.88;4932911;29;20059;-61
2022/01/06 03:25:33;;;;;;;5.70;0.80;;;;;;;16.82;47.41;101752.47;4934128;29;20181;-60
2022/01/06 03:27:58;;;;;;;5.78;0.95;;;;;;;16.86;46.82;101759.28;4934141;29;20094;-60
2022/01/06 03:30:24;;;;;;;5.40;1.10;;;;;;;16.85;47.08;101751.41;4934007;28;20091;-61
2022/01/06 03:32:50;;;;;;;6.60;0.98;;;;;;;16.82;47.18;101757.78;4907018;29;20040;-60
2022/01/06 03:35:17;;;;;;;7.22;1.05;;;;;;;16.83;47.55;101763.94;4903707;29;20048;-60
2022/01/06 03:37:43;;;;;;;5.20;0.90;;;;;;;16.83;47.25;101761.31;4914994;29;20122;-60
2022/01/06 03:40:09;;;;;;;6.65;0.93;;;;;;;16.79;47.13;101765.94;4915078;29;20047;-60
2022/01/06 03:42:35;;;;;;;5.53;1.00;;;;;;;16.84;47.78;101765.63;4915151;29;20100;-61
2022/01/06 03:45:00;;;;;;;4.50;0.90;;;;;;;16.75;47.35;101767.09;4915390;29;20040;-61
2022/01/06 03:47:26;;;;;;;5.97;0.77;;;;;;;16.76;47.03;101768.78;4914152;29;20550;-61
2022/01/06 03:49:51;;;;;;;4.72;0.85;;;;;;;16.73;47.31;101768.13;4914861;29;20050;-60
2022/01/06 03:52:17;;;;;;;6.95;0.90;;;;;;;16.77;47.50;101775.81;4914894;29;20088;-60
2022/01/06 03:54:42;;;;;;;6.00;0.90;;;;;;;16.72;47.92;101774.38;4914776;29;20067;-60
2022/01/06 03:57:07;;;;;;;8.40;1.00;;;;;;;16.72;47.62;101788.47;4914842;29;20548;-60
2022/01/06 03:59:34;;;;;;;6.07;0.98;;;;;;;16.69;47.82;101785.19;4915300;29;20036;-60
2022/01/06 04:01:59;;;;;;;6.40;1.00;;;;;;;16.70;47.70;101782.44;4913921;29;20068;-60
2022/01/06 04:04:24;;;;;;;4.70;0.90;;;;;;;16.69;47.79;101783.38;4914869;29;20056;-61
2022/01/06 04:06:50;;;;;;;4.03;0.80;;;;;;;16.65;47.14;101782.75;4914930;29;20042;-60
2022/01/06 04:09:15;;;;;;;4.40;1.10;;;;;;;16.69;47.33;101783.38;4914672;29;20400;-61
2022/01/06 04:11:41;;;;;;;6.93;0.80;;;;;;;16.62;47.23;101784.75;4927674;29;20456;-60
2022/01/06 04:14:06;;;;;;;5.55;0.73;;;;;;;16.63;47.59;101784.66;4933736;29;20039;-60
2022/01/06 04:16:35;;;;;;;5.97;0.90;;;;;;;16.57;47.18;101789.50;4933404;29;20396;-60
2022/01/06 04:19:01;;;;;;;6.07;0.95;;;;;;;16.58;47.08;101788.59;4932273;29;20052;-60
2022/01/06 04:21:26;;;;;;;4.55;0.90;;;;;;;16.62;46.99;101795.38;4933537;29;20526;-60
2022/01/06 04:23:51;;;;;;;5.20;1.00;;;;;;;16.52;47.48;101797.78;4933927;29;20631;-60
2022/01/06 04:26:17;;;;;;;4.68;0.90;;;;;;;16.58;46.82;101788.59;4933445;29;20053;-60
2022/01/06 04:28:42;;;;;;;5.95;0.88;;;;;;;16.55;47.10;101792.28;4933465;29;20091;-61
2022/01/06 04:31:08;;;;;;;4.38;0.77;;;;;;;16.52;47.12;101791.63;4930877;29;20345;-60
2022/01/06 04:33:34;;;;;;;5.85;0.90;;;;;;;16.50;47.50;101801.47;4905879;29;20033;-60
2022/01/06 04:36:00;;;;;;;4.45;0.65;;;;;;;16.46;46.75;101807.94;4914793;29;20044;-60
2022/01/06 04:38:27;;;;;;;7.20;1.35;;;;;;;16.49;47.11;101800.63;4914587;29;20037;-60
2022/01/06 04:40:52;;;;;;;5.13;0.88;;;;;;;16.44;47.82;101805.38;4914360;29;20520;-60
2022/01/06 04:43:17;;;;;;;6.72;1.10;;;;;;;16.38;47.45;101811.91;4914471;29;20056;-61
2022/01/06 04:45:43;;;;;;;5.07;0.80;;;;;;;16.46;47.16;101810.59;4897580;29;20095;-60
2022/01/06 04:48:09;;;;;;;5.32;1.10;;;;;;;16.38;46.94;101811.91;4914302;29;20048;-61
2022/01/06 04:50:34;;;;;;;4.00;0.88;;;;;;;16.35;47.73;101812.13;4914942;29;20044;-60
2022/01/06 04:52:59;;;;;;;4.28;0.77;;;;;;;16.37;47.44;101812.88;4914258;29;20048;-61
2022/01/06 04:55:25;;;;;;;5.72;1.00;;;;;;;16.33;47.05;101805.25;4914222;29;20036;-60
2022/01/06 04:57:50;;;;;;;3.88;1.13;;;;;;;16.30;48.15;101808.94;4917459;29;20548;-60
2022/01/06 05:00:16;;;;;;;5.50;0.80;;;;;;;16.30;46.75;101813.41;4917722;29;20060;-60
2022/01/06 05:02:41;;;;;;;4.75;0.90;;;;;;;16.35;47.87;101821.88;4917172;29;20569;-60
2022/01/06 05:05:07;;;;;;;4.57;0.90;;;;;;;16.29;47.56;101814.31;4917623;29;20032;-60
2022/01/06 05:07:32;;;;;;;4.18;0.88;;;;;;;16.31;47.15;101813.28;4917828;29;20378;-61
2022/01/06 05:09:58;;;;;;;5.75;0.90;;;;;;;16.24;47.20;101817.28;4917500;29;20033;-60
2022/01/06 05:12:23;;;;;;;5.00;0.93;;;;;;;16.25;47.65;101826.06;4935303;29;20040;-60
2022/01/06 05:14:49;;;;;;;4.03;0.90;;;;;;;16.25;47.84;101821.63;4919844;29;20441;-60
2022/01/06 05:17:14;;;;;;;4.70;0.80;;;;;;;16.24;47.68;101819.94;4936314;29;20074;-60
2022/01/06 05:19:39;;;;;;;7.18;1.00;;;;;;;16.22;47.63;101820.97;4936288;29;20050;-60
2022/01/06 05:22:05;;;;;;;5.60;0.90;;;;;;;16.21;47.52;101820.13;4936314;29;20807;-60
2022/01/06 05:24:30;;;;;;;4.43;0.80;;;;;;;16.26;46.92;101820.66;4933659;29;20075;-61
2022/01/06 05:26:57;;;;;;;6.18;0.98;;;;;;;16.25;47.31;101826.91;4882003;29;20042;-60
2022/01/06 05:29:22;;;;;;;5.38;1.00;;;;;;;16.32;46.57;101820.28;4898225;29;20041;-60
2022/01/06 05:31:48;;;;;;;3.95;0.60;;;;;;;16.40;46.06;101830.38;4897066;29;20128;-60
2022/01/06 05:34:14;;;;;;;6.35;1.02;;;;;;;16.44;45.92;101831.88;4898316;29;20089;-60
2022/01/06 05:36:39;;;;;;;6.05;0.77;;;;;;;16.52;46.22;101834.03;4865651;29;20033;-60
2022/01/06 05:39:05;;;;;;;2.58;0.70;;;;;;;16.58;45.78;101836.28;4898197;29;20068;-60
2022/01/06 05:41:30;;;;;;;4.30;0.68;;;;;;;16.64;45.84;101834.06;4898472;29;20552;-60
2022/01/06 05:43:56;;;;;;;20.70;1.88;;;;;;;16.71;45.84;101834.50;4898286;29;20041;-61
2022/01/06 05:46:21;;;;;;;6.03;1.02;;;;;;;16.80;46.25;101833.06;4865716;29;20099;-60
2022/01/06 05:48:47;;;;;;;4.95;0.90;;;;;;;16.86;46.20;101837.94;4897743;29;20037;-60
2022/01/06 05:51:12;;;;;;;4.75;0.70;;;;;;;16.94;45.90;101838.25;4897963;29;20037;-61
2022/01/06 05:53:38;;;;;;;5.22;0.85;;;;;;;17.07;46.20;101840.94;4898289;29;20040;-61
2022/01/06 05:56:04;;;;;;;3.55;0.68;;;;;;;17.17;46.35;101844.63;4881090;29;20584;-60
2022/01/06 05:58:29;;;;;;;3.95;0.90;;;;;;;17.28;45.63;101851.88;4897840;29;20493;-60
2022/01/06 06:00:54;;;;;;;3.80;0.85;;;;;;;17.37;46.17;101847.75;4897700;29;20374;-60
2022/01/06 06:03:20;;;;;;;2.70;0.50;;;;;;;17.44;45.99;101854.31;4897673;29;20120;-61
2022/01/06 06:05:45;;;;;;;4.00;0.70;;;;;;;17.51;46.05;101855.56;4888935;29;20409;-60
2022/01/06 06:08:11;;;;;;;3.40;0.60;;;;;;;17.56;46.16;101858.75;4898639;29;20051;-60
2022/01/06 06:10:36;;;;;;;5.53;0.88;;;;;;;17.65;45.94;101865.22;4920351;29;20039;-60
2022/01/06 06:13:02;;;;;;;4.63;0.60;;;;;;;17.70;46.10;101866.56;4935500;29;20377;-60
2022/01/06 06:15:33;;;;;;;3.38;0.77;;;;;;;17.75;45.89;101868.91;4918508;29;20520;-60
2022/01/06 06:18:11;;;;;;;2.55;0.57;;;;;;;17.79;46.04;101873.06;4934484;29;20496;-60
2022/01/06 06:20:36;;;;;;;3.67;0.60;;;;;;;17.83;46.13;101877.22;4935405;29;20645;-61
2022/01/06 06:23:02;;;;;;;3.20;0.50;;;;;;;17.86;46.70;101876.16;4935081;29;20532;-60
2022/01/06 06:25:27;;;;;;;3.38;0.60;;;;;;;17.89;46.35;101878.56;4919373;29;20633;-61
2022/01/06 06:27:53;;;;;;;3.83;0.80;;;;;;;17.92;46.69;101879.19;4897251;29;20036;-60
2022/01/06 06:30:19;;;;;;;2.50;0.50;;;;;;;17.94;46.85;101884.41;4880277;29;20048;-60
2022/01/06 06:32:45;;;;;;;2.65;0.70;;;;;;;17.95;46.93;101886.09;4897801;29;20028;-60
2022/01/06 06:35:10;;;;;;;2.20;0.45;;;;;;;17.98;46.92;101897.34;4896054;29;20390;-61
2022/01/06 06:37:35;;;;;;;1.52;0.43;;;;;;;18.00;46.82;101894.59;4897138;29;20052;-60
2022/01/06 06:40:01;;;;;;;2.90;0.60;;;;;;;18.02;46.89;101898.00;4897257;29;20045;-61
2022/01/06 06:42:27;;;;;;;2.45;0.70;;;;;;;18.03;46.65;101902.34;4880268;29;20036;-61
2022/01/06 06:44:53;;;;;;;2.75;0.68;;;;;;;18.03;46.69;101902.34;4897667;29;20037;-60
2022/01/06 06:47:18;;;;;;;3.60;0.85;;;;;;;18.05;47.09;101903.09;4896546;29;20087;-61
2022/01/06 06:49:44;;;;;;;3.22;0.60;;;;;;;18.05;46.76;101897.78;4896920;29;20382;-60
2022/01/06 06:52:09;;;;;;;3.60;0.80;;;;;;;18.06;47.22;101899.47;4896885;29;20044;-61
2022/01/06 06:54:35;;;;;;;3.58;0.60;;;;;;;18.08;47.12;101902.84;4896897;29;20045;-61
2022/01/06 06:57:00;;;;;;;2.72;0.60;;;;;;;18.09;46.83;101904.56;4897136;29;20374;-63
2022/01/06 06:59:26;;;;;;;2.65;0.60;;;;;;;18.12;46.59;101909.66;4911107;29;20044;-61
2022/01/06 07:01:51;;;;;;;3.45;0.70;;;;;;;18.13;46.63;101911.34;4915409;29;20528;-60
2022/01/06 07:04:17;;;;;;;3.90;0.70;;;;;;;18.13;47.01;101895.41;4915608;29;20516;-60
2022/01/06 07:06:42;;;;;;;3.75;0.70;;;;;;;18.15;46.80;101909.44;4915400;29;20047;-60
2022/01/06 07:09:07;;;;;;;3.65;0.57;;;;;;;18.16;46.69;101908.47;4915322;29;20504;-61
2022/01/06 07:11:33;;;;;;;2.80;0.60;;;;;;;18.18;46.62;101909.22;4927296;29;20020;-61
2022/01/06 07:13:58;;;;;;;3.85;0.70;;;;;;;18.22;46.60;101907.19;4911002;29;20178;-60
2022/01/06 07:16:24;;;;;;;3.83;0.77;;;;;;;18.25;46.78;101915.78;4905097;29;20111;-60
2022/01/06 07:18:49;;;;;;;3.50;0.57;;;;;;;18.27;46.46;101921.00;4903850;29;20044;-59
2022/01/06 07:21:15;;;;;;;5.70;0.77;;;;;;;18.22;46.00;101907.19;4887694;29;20056;-60
2022/01/06 07:23:41;;;;;;;5.32;0.85;;;;;;;18.23;46.70;101917.69;4908048;29;20484;-60
2022/01/06 07:26:06;;;;;;;2.83;0.80;;;;;;;18.29;46.75;101918.22;4878033;29;20056;-57
2022/01/06 07:28:32;;;;;;;3.88;0.73;;;;;;;18.26;46.91;101920.13;4897618;29;20516;-61
2022/01/06 07:30:57;;;;;;;4.03;1.10;;;;;;;18.30;46.86;101922.56;4914984;29;20103;-61
2022/01/06 07:33:22;;;;;;;3.75;0.60;;;;;;;18.30;47.28;101922.56;4912656;29;20040;-60
2022/01/06 07:35:48;;;;;;;3.35;0.70;;;;;;;18.32;46.80;101920.66;4896064;29;20067;-60
2022/01/06 07:38:13;;;;;;;3.58;0.73;;;;;;;18.31;47.08;101919.81;4895707;29;20492;-60
2022/01/06 07:40:39;;;;;;;4.20;0.68;;;;;;;18.35;47.12;101920.44;4907506;29;20036;-60
2022/01/06 07:43:04;;;;;;;4.22;0.60;;;;;;;18.37;46.84;101923.84;4904760;29;20489;-60
2022/01/06 07:45:30;;;;;;;4.93;0.70;;;;;;;18.35;46.99;101926.59;4908196;29;20127;-60
2022/01/06 07:47:57;;;;;;;4.57;0.50;;;;;;;18.37;46.87;101935.31;4887705;29;20044;-60
2022/01/06 07:50:24;;;;;;;5.88;1.23;;;;;;;18.38;47.16;101930.84;4880213;29;20045;-60
2022/01/06 07:52:49;;;;;;;3.97;0.80;;;;;;;18.40;47.15;101934.25;4881281;29;20074;-60
2022/01/06 07:55:14;;;;;;;3.67;0.95;;;;;;;18.40;46.91;101939.56;4877393;29;20049;-60
2022/01/06 07:57:40;;;;;;;3.00;0.73;;;;;;;18.41;47.00;101938.59;4886732;29;20036;-60
2022/01/06 08:00:06;;;;;;;3.03;0.90;;;;;;;18.44;47.47;101943.69;4895321;29;20426;-61
2022/01/06 08:02:31;;;;;;;4.72;0.70;;;;;;;18.43;46.89;101942.00;4892325;29;20040;-61
2022/01/06 08:04:57;;;;;;;4.50;0.70;;;;;;;18.43;47.06;101939.34;4880211;29;20047;-61
2022/01/06 08:07:22;;;;;;;3.70;0.80;;;;;;;18.44;46.93;101939.22;4893236;29;20041;-61
2022/01/06 08:09:47;;;;;;;5.38;0.88;;;;;;;18.42;47.07;101937.63;4895910;29;20069;-61
2022/01/06 08:12:13;;;;;;;3.60;0.70;;;;;;;18.43;46.86;101937.50;4901633;29;20478;-61
2022/01/06 08:14:38;;;;;;;3.15;0.65;;;;;;;18.45;47.15;101942.69;4891006;29;20389;-60
2022/01/06 08:17:04;;;;;;;4.03;0.68;;;;;;;18.47;47.19;101954.09;4893336;29;20053;-61
2022/01/06 08:19:29;;;;;;;4.28;0.68;;;;;;;18.47;46.88;101949.59;4882822;29;20072;-60
2022/01/06 08:21:55;;;;;;;4.32;0.60;;;;;;;18.48;47.22;101953.13;4894589;29;20410;-60
2022/01/06 08:24:20;;;;;;;2.55;0.57;;;;;;;18.51;46.66;101955.56;4890190;29;20084;-61
2022/01/06 08:26:45;;;;;;;4.72;0.80;;;;;;;18.49;47.08;101955.69;4892673;29;20186;-58
2022/01/06 08:29:11;;;;;;;4.38;0.88;;;;;;;18.52;46.70;101959.03;4895665;29;20048;-60
2022/01/06 08:31:36;;;;;;;5.35;0.68;;;;;;;18.47;45.21;101956.75;4896098;29;20519;-61
2022/01/06 08:34:02;;;;;;;5.13;0.95;;;;;;;18.29;45.82;101958.91;4894370;29;20049;-61
2022/01/06 08:36:27;;;;;;;2.88;0.57;;;;;;;18.40;46.34;101966.13;4899236;29;20131;-61
2022/01/06 08:38:52;;;;;;;3.97;1.23;;;;;;;18.43;46.04;101972.06;4899363;29;20050;-61
2022/01/06 08:41:18;;;;;;;2.90;0.70;;;;;;;18.45;45.89;101969.28;4913491;29;20056;-61
2022/01/06 08:43:43;;;;;;;4.93;0.75;;;;;;;18.46;46.27;101971.84;4899166;29;20053;-61
2022/01/06 08:46:09;;;;;;;5.85;0.85;;;;;;;18.46;46.38;101971.84;4899100;29;20047;-61
2022/01/06 08:48:34;;;;;;;3.55;0.70;;;;;;;18.46;45.56;101960.38;4909958;29;20040;-61
2022/01/06 08:51:01;;;;;;;3.95;0.70;;;;;;;18.46;45.94;101957.72;4917124;29;20036;-60
2022/01/06 08:53:26;;;;;;;3.33;0.68;;;;;;;18.46;45.88;101960.38;4917866;29;20645;-60
2022/01/06 08:55:52;;;;;;;4.10;0.80;;;;;;;18.43;46.31;101964.09;4905308;29;20043;-61
2022/01/06 08:58:17;;;;;;;3.75;0.73;;;;;;;18.42;46.15;101964.19;4899063;29;20489;-61
2022/01/06 09:00:43;;;;;;;2.83;0.70;;;;;;;18.38;45.19;101974.19;4898770;29;20561;-61
2022/01/06 09:03:09;;;;;;;3.90;0.80;;;;;;;18.34;45.94;101970.06;4898730;29;20039;-61
2022/01/06 09:05:35;;;;;;;3.92;0.90;;;;;;;18.33;45.82;101964.84;4899103;29;20036;-61
2022/01/06 09:08:01;;;;;;;4.10;0.88;;;;;;;18.30;45.84;101975.69;4898629;29;20065;-61
2022/01/06 09:10:30;;;;;;;5.50;0.95;;;;;;;18.26;45.80;101970.59;4903873;29;20071;-60
2022/01/06 09:12:56;;;;;;;3.83;0.90;;;;;;;18.25;45.68;101970.72;4936428;29;20043;-61
2022/01/06 09:15:21;;;;;;;4.88;0.82;;;;;;;18.23;45.68;101973.47;4936532;29;20044;-61
2022/01/06 09:17:47;;;;;;;3.13;0.90;;;;;;;18.21;45.71;101964.78;4936642;29;20520;-61
2022/01/06 09:20:12;;;;;;;3.70;0.88;;;;;;;18.18;45.73;101970.31;4919315;29;20484;-61
2022/01/06 09:22:38;;;;;;;5.43;0.93;;;;;;;18.16;45.49;101961.59;4936355;29;20067;-61
2022/01/06 09:25:03;;;;;;;4.60;0.90;;;;;;;18.17;45.18;101959.78;4919981;29;20044;-61
2022/01/06 09:27:30;;;;;;;4.55;0.93;;;;;;;18.13;45.81;101964.47;4898366;29;20040;-60
2022/01/06 09:29:56;;;;;;;4.65;0.95;;;;;;;18.14;45.64;101960.84;4898792;29;20496;-61
2022/01/06 09:32:21;;;;;;;6.88;0.88;;;;;;;18.12;45.30;101968.09;4898267;29;20053;-60
2022/01/06 09:34:46;;;;;;;3.30;1.05;;;;;;;18.12;45.76;101967.25;4898304;29;20416;-61
2022/01/06 09:37:12;;;;;;;3.50;0.90;;;;;;;18.10;45.58;101969.16;4898154;29;20079;-61
2022/01/06 09:39:38;;;;;;;3.35;0.80;;;;;;;18.09;45.53;101976.28;4898301;29;20124;-61
2022/01/06 09:42:04;;;;;;;5.05;1.08;;;;;;;18.08;45.60;101977.22;4897984;29;20514;-61
2022/01/06 09:44:29;;;;;;;3.65;0.98;;;;;;;18.09;45.24;101978.94;4898752;29;20020;-61
2022/01/06 09:46:55;;;;;;;5.55;1.30;;;;;;;18.06;45.88;101975.66;4881182;29;20041;-61
2022/01/06 09:49:21;;;;;;;6.85;1.20;;;;;;;18.04;45.54;101981.03;4897809;29;20041;-61
2022/01/06 09:51:46;;;;;;;3.95;1.02;;;;;;;18.03;45.86;101979.34;4881210;29;20123;-61
2022/01/06 09:54:12;;;;;;;5.20;1.00;;;;;;;18.03;45.74;101984.66;4898222;29;20041;-61
2022/01/06 09:56:37;;;;;;;6.40;1.35;;;;;;;18.00;45.91;101984.88;4917086;29;20123;-60
2022/01/06 09:59:03;;;;;;;5.20;1.00;;;;;;;17.99;45.85;101992.00;4916694;29;20412;-61
2022/01/06 10:01:28;;;;;;;5.13;1.30;;;;;;;17.99;45.78;101993.81;4916774;29;20044;-61
2022/01/06 10:03:54;;;;;;;5.38;1.00;;;;;;;17.99;45.63;101997.31;4916558;29;20032;-61
2022/01/06 10:06:23;;;;;;;6.53;1.17;;;;;;;17.99;45.72;101999.13;4916528;29;20032;-61
2022/01/06 10:09:01;;;;;;;4.28;1.08;;;;;;;17.96;45.65;101988.72;4916936;29;20039;-61
2022/01/06 10:11:29;;;;;;;4.45;1.10;;;;;;;17.98;45.95;101994.75;4927031;29;20079;-60
2022/01/06 10:13:56;;;;;;;4.43;1.10;;;;;;;17.95;45.60;101992.31;4935367;29;20067;-60
2022/01/06 10:16:22;;;;;;;5.00;1.23;;;;;;;17.95;46.17;101994.97;4935220;29;20044;-60
2022/01/06 10:18:54;;;;;;;3.28;0.90;;;;;;;17.90;45.84;101997.13;4935181;28;20039;-61
2022/01/06 10:21:19;;;;;;;4.35;1.00;;;;;;;17.92;45.94;101993.38;4935239;29;20038;-61
2022/01/06 10:23:56;;;;;;;3.55;0.98;;;;;;;17.91;45.62;101996.16;4935612;29;20035;-61
2022/01/06 10:26:22;;;;;;;3.25;0.77;;;;;;;17.89;45.71;101990.09;4897390;29;20052;-61
2022/01/06 10:28:50;;;;;;;3.30;0.80;;;;;;;17.92;46.24;101992.53;4897244;29;20197;-61
2022/01/06 10:31:18;;;;;;;4.60;0.80;;;;;;;17.88;45.53;101991.06;4897324;29;20119;-61
2022/01/06 10:33:43;;;;;;;3.65;0.88;;;;;;;17.87;45.80;101984.91;4897144;29;20413;-61
2022/01/06 10:36:09;;;;;;;3.17;1.00;;;;;;;17.85;45.89;101986.78;4896994;29;20047;-61
2022/01/06 10:38:35;;;;;;;4.82;0.93;;;;;;;17.83;45.47;101998.47;4897636;29;20078;-60
2022/01/06 10:41:21;;;;;;;4.45;0.85;;;;;;;17.77;45.57;101995.31;4897038;29;20037;-61
2022/01/06 10:43:51;;;;;;;2.95;0.70;;;;;;;17.79;45.95;101997.84;4896631;29;20052;-60
2022/01/06 10:46:40;;;;;;;5.18;1.00;;;;;;;17.77;45.91;101997.13;4880121;29;20041;-61
2022/01/06 10:49:07;;;;;;;3.63;0.70;;;;;;;17.74;45.56;101998.13;4896466;29;20045;-61
2022/01/06 10:51:37;;;;;;;5.30;0.95;;;;;;;17.79;46.41;101992.53;4901885;29;20492;-59
2022/01/06 10:54:03;;;;;;;5.75;0.77;;;;;;;17.85;46.43;101967.38;4910213;29;20036;-61
2022/01/06 10:56:28;;;;;;;9.82;0.70;;;;;;;17.88;46.25;101975.13;4905552;29;20063;-60
2022/01/06 10:58:58;;;;;;;3.42;0.90;;;;;;;17.88;46.23;101973.31;4906348;29;20048;-59
2022/01/06 11:01:23;;;;;;;2.90;0.73;;;;;;;17.95;46.91;101973.72;4904723;29;20052;-60
2022/01/06 11:03:49;;;;;;;3.83;0.70;;;;;;;18.05;46.78;101964.19;4911664;29;20052;-60
2022/01/06 11:06:14;;;;;;;4.60;0.68;;;;;;;18.11;46.59;101961.06;4900183;29;20056;-60
2022/01/06 11:08:41;;;;;;;7.75;0.57;;;;;;;18.14;47.30;101962.66;4896889;29;20374;-60
2022/01/06 11:13:36;;;;;;;3.67;0.68;;;;;;;18.20;47.15;101960.41;4902825;29;20059;-60
2022/01/06 11:16:01;;;;;;;2.00;0.50;;;;;;;18.25;47.46;101962.75;4899895;29;20036;-60
2022/01/06 11:18:27;;;;;;;3.17;0.68;;;;;;;18.33;47.21;101972.81;4906189;29;20100;-60
2022/01/06 11:21:00;;;;;;;2.13;0.50;;;;;;;18.38;47.40;101974.19;4898191;29;20107;-60
2022/01/06 11:23:26;;;;;;;2.92;0.73;;;;;;;18.46;47.38;101965.69;4899600;29;20048;-60
2022/01/06 11:26:21;;;;;;;3.42;0.80;;;;;;;18.44;46.44;101967.59;4908060;29;20123;-60
2022/01/06 11:28:59;;;;;;;2.50;0.63;;;;;;;18.44;46.73;101972.91;4914994;29;20054;-60